Terminal Aerodrome Forecast
Issued by NWS

Home | Current Version | Previous Version | Text Only | Print | Product List | Glossary On
Versions: 1 2 3 4 5 6 7 8 9 10 11 12 13 14 15 16 17
437
FTUS45 KRIW 302333
TAFBPI
TAF
KBPI 302333Z 0100/0124 19011KT P6SM VCSH SCT024 BKN035
      TEMPO 0100/0103 BKN024
     FM010300 16007KT P6SM SCT030 BKN040
     FM010900 VRB04KT P6SM FEW005
     FM011800 10011KT P6SM SCT250=

USA.gov is the U.S. government's official web portal to all federal, state and local government web resources and services.